createdAt,value
2023-04-29T00:00:16.092Z,78.91
2023-04-29T00:02:44.851Z,80.16
2023-04-29T00:05:13.874Z,80.96
2023-04-29T00:07:44.310Z,80.37
2023-04-29T00:10:15.792Z,80.96
2023-04-29T00:12:47.330Z,81.21
2023-04-29T00:15:15.685Z,80.23
2023-04-29T00:17:47.708Z,79.26
2023-04-29T00:20:16.455Z,80.79
2023-04-29T00:22:45.984Z,80.28
2023-04-29T00:25:17.672Z,80.47
2023-04-29T00:27:45.834Z,80.69
2023-04-29T00:30:14.173Z,80.68
2023-04-29T00:32:43.560Z,81.51
2023-04-29T00:35:34.986Z,80.90
2023-04-29T00:38:04.742Z,80.04
2023-04-29T00:40:32.850Z,80.69
2023-04-29T00:43:01.696Z,80.51
2023-04-29T00:45:30.055Z,80.28
2023-04-29T00:47:58.352Z,80.23
2023-04-29T00:50:26.708Z,80.77
2023-04-29T00:52:57.164Z,80.63
2023-04-29T00:55:27.719Z,82.25
2023-04-29T00:57:57.102Z,82.92
2023-04-29T01:00:26.370Z,82.54
2023-04-29T01:02:57.226Z,81.92
2023-04-29T01:05:25.815Z,81.26
2023-04-29T01:07:58.686Z,81.69
2023-04-29T01:10:30.571Z,80.62
2023-04-29T01:13:05.678Z,80.70
2023-04-29T01:15:37.514Z,81.42
2023-04-29T01:18:07.612Z,80.19
2023-04-29T01:20:37.958Z,80.00
2023-04-29T01:23:06.943Z,78.88
2023-04-29T01:25:38.564Z,79.10
2023-04-29T01:28:22.906Z,79.89
2023-04-29T01:30:54.661Z,79.95
2023-04-29T01:33:26.305Z,79.90
2023-04-29T01:36:01.028Z,80.35
2023-04-29T01:38:35.451Z,80.48
2023-04-29T01:41:11.430Z,80.23
2023-04-29T01:43:40.665Z,80.33
2023-04-29T01:46:19.923Z,79.97
2023-04-29T01:48:48.907Z,81.24
2023-04-29T01:51:17.660Z,81.47
2023-04-29T01:53:45.756Z,80.03
2023-04-29T01:56:15.640Z,81.09
2023-04-29T01:58:49.093Z,80.45
2023-04-29T02:01:37.805Z,78.32
2023-04-29T02:04:06.572Z,79.48
2023-04-29T02:06:35.521Z,78.72
2023-04-29T02:09:05.704Z,79.58
2023-04-29T02:11:37.356Z,79.22
2023-04-29T02:14:05.602Z,78.98
2023-04-29T02:16:33.935Z,78.95
2023-04-29T02:19:07.940Z,80.82
2023-04-29T02:21:40.435Z,79.38
2023-04-29T02:24:08.659Z,79.06
2023-04-29T02:26:38.577Z,79.20
2023-04-29T02:29:06.818Z,78.76
2023-04-29T02:31:37.078Z,78.71
2023-04-29T02:34:05.473Z,78.86
2023-04-29T02:36:35.672Z,78.63
2023-04-29T02:39:03.890Z,78.10
2023-04-29T02:41:31.982Z,77.46
2023-04-29T02:44:01.601Z,77.19
2023-04-29T02:46:29.822Z,78.04
2023-04-29T02:48:58.414Z,76.96
2023-04-29T02:51:26.738Z,76.95
2023-04-29T02:53:55.552Z,77.54
2023-04-29T02:56:23.673Z,76.63
2023-04-29T02:58:51.787Z,76.50
2023-04-29T03:01:22.047Z,76.78
2023-04-29T03:03:50.661Z,76.90
2023-04-29T03:06:19.353Z,77.50
2023-04-29T03:08:47.468Z,76.40
2023-04-29T03:11:16.027Z,75.32
2023-04-29T03:13:44.260Z,75.56
2023-04-29T03:16:13.921Z,75.77
2023-04-29T03:18:43.522Z,74.97
2023-04-29T03:21:11.636Z,74.19
2023-04-29T03:23:40.794Z,75.90
2023-04-29T03:26:11.835Z,76.27
2023-04-29T03:28:40.117Z,75.10
2023-04-29T03:31:08.283Z,75.91
2023-04-29T03:33:36.472Z,76.21
2023-04-29T03:36:06.501Z,76.00
2023-04-29T03:38:52.912Z,75.17
2023-04-29T03:41:21.351Z,75.30
2023-04-29T03:43:49.476Z,74.75
2023-04-29T03:46:17.724Z,74.80
2023-04-29T03:48:46.400Z,75.52
2023-04-29T03:51:16.469Z,75.27
2023-04-29T03:53:45.430Z,75.34
2023-04-29T03:56:13.530Z,75.52
2023-04-29T03:58:41.617Z,75.42
2023-04-29T04:01:10.102Z,76.41
2023-04-29T04:03:44.927Z,76.55
2023-04-29T04:06:13.251Z,76.45
2023-04-29T04:08:42.971Z,76.80
2023-04-29T04:11:17.319Z,77.66
2023-04-29T04:14:04.644Z,77.85
2023-04-29T04:16:32.914Z,77.26
2023-04-29T04:19:01.763Z,77.38
2023-04-29T04:21:31.895Z,76.98
2023-04-29T04:24:08.203Z,76.83
2023-04-29T04:26:36.419Z,76.12
2023-04-29T04:29:13.421Z,77.00
2023-04-29T04:31:55.195Z,76.90
2023-04-29T04:34:24.452Z,76.93
2023-04-29T04:36:53.982Z,76.45
2023-04-29T04:39:25.097Z,76.42
2023-04-29T04:41:56.422Z,76.95
2023-04-29T04:44:24.980Z,76.31
2023-04-29T04:47:11.734Z,76.69
2023-04-29T04:49:56.552Z,76.79
2023-04-29T04:52:26.998Z,76.46
2023-04-29T04:55:07.007Z,76.44
2023-04-29T04:57:38.617Z,76.29
2023-04-29T05:00:07.638Z,76.19
2023-04-29T05:02:36.415Z,76.45
2023-04-29T05:05:05.004Z,75.33
2023-04-29T05:07:37.112Z,76.47
2023-04-29T05:10:08.778Z,75.87
2023-04-29T05:12:44.948Z,76.23
2023-04-29T05:15:15.097Z,76.52
2023-04-29T05:17:45.222Z,75.89
2023-04-29T05:20:13.823Z,74.71
2023-04-29T05:22:41.972Z,75.57
2023-04-29T05:25:11.821Z,75.03
2023-04-29T05:27:40.505Z,75.10
2023-04-29T05:30:12.964Z,78.00
2023-04-29T05:32:41.317Z,78.35
2023-04-29T05:35:14.664Z,78.43
2023-04-29T05:37:43.127Z,78.52
2023-04-29T05:40:33.001Z,78.15
2023-04-29T05:43:18.563Z,79.51
2023-04-29T05:45:48.032Z,79.01
2023-04-29T05:48:16.531Z,78.27
2023-04-29T05:50:51.900Z,77.97
2023-04-29T05:53:20.891Z,77.77
2023-04-29T05:55:51.670Z,77.74
2023-04-29T05:58:22.006Z,77.74
2023-04-29T06:00:50.701Z,76.21
2023-04-29T06:03:23.757Z,78.37
2023-04-29T06:06:12.366Z,76.25
2023-04-29T06:08:48.029Z,77.14
2023-04-29T06:11:26.841Z,77.61
2023-04-29T06:13:55.263Z,76.68
2023-04-29T06:16:29.424Z,77.55
2023-04-29T06:18:57.842Z,77.48
2023-04-29T06:21:26.120Z,77.01
2023-04-29T06:23:54.357Z,77.63
2023-04-29T06:26:24.958Z,77.31
2023-04-29T06:28:54.426Z,78.38
2023-04-29T06:31:24.152Z,78.33
2023-04-29T06:33:55.211Z,76.86
2023-04-29T06:36:27.314Z,76.05
2023-04-29T06:39:16.125Z,75.58
2023-04-29T06:42:05.773Z,78.05
2023-04-29T06:44:44.545Z,77.39
2023-04-29T06:47:37.219Z,76.68
2023-04-29T06:50:12.845Z,75.85
2023-04-29T06:52:49.400Z,75.84
2023-04-29T06:55:18.136Z,76.30
2023-04-29T06:57:47.780Z,75.39
2023-04-29T07:00:16.605Z,75.17
2023-04-29T07:02:44.970Z,75.76
2023-04-29T07:05:13.212Z,74.56
2023-04-29T07:07:41.388Z,74.83
2023-04-29T07:10:09.973Z,73.62
2023-04-29T07:12:38.572Z,73.71
2023-04-29T07:15:12.968Z,76.21
2023-04-29T07:17:41.394Z,75.45
2023-04-29T07:20:10.398Z,73.22
2023-04-29T07:22:40.465Z,73.00
2023-04-29T07:25:11.201Z,72.95
2023-04-29T07:27:39.664Z,70.87
2023-04-29T07:30:10.949Z,68.68
2023-04-29T07:32:42.888Z,68.39
2023-04-29T07:35:11.413Z,70.56
2023-04-29T07:37:43.888Z,70.97
2023-04-29T07:40:15.259Z,72.40
2023-04-29T07:42:47.312Z,70.37
2023-04-29T07:45:17.187Z,69.54
2023-04-29T07:47:45.733Z,70.89
2023-04-29T07:50:16.534Z,67.51
2023-04-29T07:52:45.294Z,68.07
2023-04-29T07:55:13.694Z,66.30
2023-04-29T07:57:41.891Z,68.25
2023-04-29T08:00:13.528Z,68.89
2023-04-29T08:05:32.064Z,68.53
2023-04-29T08:08:00.494Z,65.73
2023-04-29T08:10:28.642Z,61.86
2023-04-29T08:12:56.925Z,65.20
2023-04-29T08:15:25.231Z,67.92
2023-04-29T08:17:56.480Z,68.22
2023-04-29T08:20:24.744Z,66.66
2023-04-29T08:22:53.362Z,65.32
2023-04-29T08:25:21.752Z,63.09
2023-04-29T08:27:50.800Z,62.78
2023-04-29T08:30:19.214Z,62.14
2023-04-29T08:32:47.407Z,59.37
2023-04-29T08:35:17.107Z,65.01
2023-04-29T08:37:45.291Z,63.05
2023-04-29T08:40:14.730Z,64.15
2023-04-29T08:42:46.347Z,61.32
2023-04-29T08:45:17.468Z,62.31
2023-04-29T08:47:46.034Z,63.80
2023-04-29T08:50:14.712Z,58.98
2023-04-29T08:52:46.154Z,63.25
2023-04-29T08:55:14.392Z,60.86
2023-04-29T08:57:45.029Z,60.95
2023-04-29T09:00:13.772Z,60.01
2023-04-29T09:02:44.961Z,64.20
2023-04-29T09:05:13.666Z,61.68
2023-04-29T09:07:44.658Z,63.75
2023-04-29T09:10:15.099Z,63.14
2023-04-29T09:12:43.376Z,59.79
2023-04-29T09:15:11.906Z,60.82
2023-04-29T09:17:41.163Z,59.34
2023-04-29T09:20:28.525Z,61.28
2023-04-29T09:22:59.578Z,61.82
2023-04-29T09:25:31.424Z,58.73
2023-04-29T09:27:59.603Z,60.36
2023-04-29T09:30:27.832Z,57.89
2023-04-29T09:33:06.105Z,57.09
2023-04-29T09:35:34.330Z,54.32
2023-04-29T09:38:12.598Z,54.67
2023-04-29T09:40:57.325Z,55.54
2023-04-29T09:43:26.416Z,53.29
2023-04-29T09:45:57.218Z,55.95
2023-04-29T09:48:32.322Z,51.13
2023-04-29T09:51:03.676Z,54.55
2023-04-29T09:53:32.676Z,56.49
2023-04-29T09:56:03.148Z,54.10
2023-04-29T09:58:34.297Z,56.46
2023-04-29T10:01:05.134Z,54.08
2023-04-29T10:03:34.070Z,51.85
2023-04-29T10:06:03.328Z,52.99
2023-04-29T10:08:31.958Z,53.31
2023-04-29T10:11:02.361Z,54.32
2023-04-29T10:13:32.698Z,52.51
2023-04-29T10:16:08.109Z,49.78
2023-04-29T10:18:37.902Z,48.75
2023-04-29T10:21:08.180Z,46.37
2023-04-29T10:23:37.381Z,47.70
2023-04-29T10:26:19.368Z,48.17
2023-04-29T10:28:50.216Z,48.23
2023-04-29T10:31:31.892Z,48.53
2023-04-29T10:34:01.827Z,48.05
2023-04-29T10:36:31.745Z,47.52
2023-04-29T10:39:02.256Z,46.81
2023-04-29T10:41:35.755Z,42.35
2023-04-29T10:44:14.643Z,44.46
2023-04-29T10:46:42.983Z,43.79
2023-04-29T10:49:13.673Z,41.72
2023-04-29T10:51:42.834Z,46.13
2023-04-29T10:54:11.733Z,41.15
2023-04-29T10:56:40.917Z,41.72
2023-04-29T10:59:14.510Z,41.41
2023-04-29T11:01:45.683Z,41.51
2023-04-29T11:04:14.277Z,41.98
2023-04-29T11:06:44.051Z,41.66
2023-04-29T11:09:14.619Z,44.85
2023-04-29T11:11:47.071Z,43.69
2023-04-29T11:14:16.184Z,40.44
2023-04-29T11:16:53.459Z,44.37
2023-04-29T11:19:22.193Z,42.99
2023-04-29T11:21:50.396Z,41.16
2023-04-29T11:24:19.669Z,42.56
2023-04-29T11:26:49.028Z,41.42
2023-04-29T11:29:19.772Z,41.54
2023-04-29T11:31:48.284Z,40.71
2023-04-29T11:34:17.897Z,41.23
2023-04-29T11:36:47.608Z,41.08
2023-04-29T11:39:18.301Z,40.31
2023-04-29T11:41:46.672Z,40.54
2023-04-29T11:44:14.791Z,40.91
2023-04-29T11:46:43.071Z,39.95
2023-04-29T11:49:11.410Z,39.98
2023-04-29T11:51:41.074Z,40.48
2023-04-29T11:54:09.243Z,40.89
2023-04-29T11:56:38.771Z,40.48
2023-04-29T11:59:08.378Z,42.06
2023-04-29T12:01:37.205Z,40.88
2023-04-29T12:04:07.497Z,42.61
2023-04-29T12:06:35.747Z,42.79
2023-04-29T12:09:05.381Z,41.33
2023-04-29T12:11:33.532Z,42.61
2023-04-29T12:14:03.855Z,39.24
2023-04-29T12:16:32.583Z,39.80
2023-04-29T12:19:01.177Z,39.62
2023-04-29T12:21:31.933Z,39.17
2023-04-29T12:24:01.440Z,36.42
2023-04-29T12:26:31.681Z,36.35
2023-04-29T12:29:00.201Z,38.95
2023-04-29T12:31:35.641Z,38.46
2023-04-29T12:34:07.495Z,38.73
2023-04-29T12:36:37.941Z,37.53
2023-04-29T12:39:08.556Z,36.69
2023-04-29T12:41:42.286Z,38.67
2023-04-29T12:44:11.990Z,38.86
2023-04-29T12:46:40.840Z,39.69
2023-04-29T12:49:09.433Z,38.28
2023-04-29T12:51:37.900Z,38.17
2023-04-29T12:54:07.429Z,39.24
2023-04-29T12:56:35.716Z,37.84
2023-04-29T12:59:08.926Z,37.69
2023-04-29T13:01:37.274Z,34.97
2023-04-29T13:04:08.866Z,35.24
2023-04-29T13:06:39.658Z,36.94
2023-04-29T13:09:17.001Z,35.93
2023-04-29T13:11:49.102Z,38.51
2023-04-29T13:14:18.857Z,38.26
2023-04-29T13:16:47.074Z,38.34
2023-04-29T13:19:30.548Z,35.26
2023-04-29T13:22:03.662Z,34.74
2023-04-29T13:24:33.266Z,38.69
2023-04-29T13:27:03.292Z,36.06
2023-04-29T13:29:33.006Z,37.61
2023-04-29T13:32:01.300Z,37.70
2023-04-29T13:34:29.558Z,35.90
2023-04-29T13:36:57.796Z,35.93
2023-04-29T13:39:26.065Z,36.24
2023-04-29T13:41:58.516Z,38.40
2023-04-29T13:44:34.119Z,38.12
2023-04-29T13:47:09.460Z,37.07
2023-04-29T13:50:03.412Z,37.34
2023-04-29T13:53:10.488Z,35.05
2023-04-29T13:56:03.674Z,37.45
2023-04-29T14:03:07.853Z,37.37
2023-04-29T14:05:37.017Z,36.29
2023-04-29T14:08:05.344Z,36.03
2023-04-29T14:10:33.508Z,35.02
2023-04-29T14:13:01.666Z,36.00
2023-04-29T14:15:29.937Z,32.24
2023-04-29T14:17:58.233Z,35.09
2023-04-29T14:20:27.988Z,34.79
2023-04-29T14:22:56.432Z,35.51
2023-04-29T14:25:26.641Z,35.49
2023-04-29T14:27:55.543Z,34.80
2023-04-29T14:30:23.824Z,35.15
2023-04-29T14:32:54.767Z,33.60
2023-04-29T14:35:23.230Z,33.85
2023-04-29T14:37:53.176Z,34.16
2023-04-29T14:40:21.425Z,33.22
2023-04-29T14:42:52.816Z,33.47
2023-04-29T14:45:21.251Z,32.10
2023-04-29T14:47:49.427Z,34.08
2023-04-29T14:50:18.367Z,33.54
2023-04-29T14:52:46.504Z,34.75
2023-04-29T14:55:16.099Z,31.89
2023-04-29T14:57:44.175Z,33.83
2023-04-29T15:00:13.071Z,34.54
2023-04-29T15:02:41.309Z,34.23
2023-04-29T15:05:09.867Z,32.86
2023-04-29T15:07:38.160Z,32.74
2023-04-29T15:10:09.573Z,33.32
2023-04-29T15:12:39.172Z,33.07
2023-04-29T15:15:08.119Z,31.92
2023-04-29T15:17:36.367Z,35.00
2023-04-29T15:20:07.716Z,33.87
2023-04-29T15:22:36.198Z,33.53
2023-04-29T15:25:04.708Z,32.97
2023-04-29T15:27:32.951Z,32.91
2023-04-29T15:30:03.613Z,33.43
2023-04-29T15:32:32.999Z,34.32
2023-04-29T15:35:01.495Z,35.97
2023-04-29T15:37:32.098Z,34.14
2023-04-29T15:40:00.867Z,33.96
2023-04-29T15:42:29.534Z,34.19
2023-04-29T15:44:59.222Z,32.88
2023-04-29T15:47:28.963Z,32.55
2023-04-29T15:49:57.272Z,34.30
2023-04-29T15:52:25.434Z,37.02
2023-04-29T15:54:54.839Z,34.11
2023-04-29T15:57:23.322Z,36.33
2023-04-29T15:59:51.862Z,32.06
2023-04-29T16:02:21.409Z,37.74
2023-04-29T16:04:51.239Z,35.38
2023-04-29T16:07:19.558Z,37.29
2023-04-29T16:09:47.704Z,38.80
2023-04-29T16:12:15.903Z,35.37
2023-04-29T16:14:44.107Z,37.24
2023-04-29T16:17:12.889Z,35.88
2023-04-29T16:19:41.175Z,34.59
2023-04-29T16:22:10.708Z,36.75
2023-04-29T16:24:38.835Z,35.95
2023-04-29T16:27:07.286Z,36.72
2023-04-29T16:29:35.444Z,39.19
2023-04-29T16:32:04.179Z,38.03
2023-04-29T16:34:32.296Z,39.02
2023-04-29T16:37:00.965Z,36.99
2023-04-29T16:39:30.515Z,35.16
2023-04-29T16:41:59.659Z,36.77
2023-04-29T16:44:27.781Z,40.98
2023-04-29T16:46:57.121Z,39.44
2023-04-29T16:49:26.539Z,39.31
2023-04-29T16:51:54.700Z,39.36
2023-04-29T16:54:22.894Z,38.43
2023-04-29T16:56:52.814Z,37.28
2023-04-29T16:59:20.954Z,35.57
2023-04-29T17:01:49.144Z,37.42
2023-04-29T17:04:17.459Z,38.87
2023-04-29T17:06:45.676Z,40.49
2023-04-29T17:09:13.944Z,37.73
2023-04-29T17:11:44.476Z,38.49
2023-04-29T17:14:14.018Z,41.55
2023-04-29T17:16:43.511Z,41.30
2023-04-29T17:19:11.679Z,43.29
2023-04-29T17:21:40.105Z,41.97
2023-04-29T17:24:08.435Z,41.54
2023-04-29T17:26:36.714Z,42.58
2023-04-29T17:29:04.913Z,39.73
2023-04-29T17:31:45.240Z,38.76
2023-04-29T17:34:19.845Z,41.92
2023-04-29T17:36:48.267Z,39.18
2023-04-29T17:39:16.810Z,41.76
2023-04-29T17:41:45.809Z,41.41
2023-04-29T17:44:19.257Z,41.59
2023-04-29T17:46:51.357Z,41.81
2023-04-29T17:49:21.976Z,37.63
2023-04-29T17:51:54.175Z,40.56
2023-04-29T17:54:22.400Z,40.13
2023-04-29T17:56:50.701Z,38.68
2023-04-29T17:59:18.970Z,39.12
2023-04-29T18:01:47.440Z,38.73
2023-04-29T18:04:17.218Z,40.93
2023-04-29T18:06:48.309Z,42.65
2023-04-29T18:09:19.190Z,40.71
2023-04-29T18:11:47.558Z,43.02
2023-04-29T18:14:15.770Z,43.20
2023-04-29T18:16:45.588Z,43.43
2023-04-29T18:19:14.087Z,44.39
2023-04-29T18:21:43.738Z,44.63
2023-04-29T18:24:11.866Z,45.75
2023-04-29T18:26:40.222Z,45.23
2023-04-29T18:29:08.738Z,46.76
2023-04-29T18:31:43.388Z,46.69
2023-04-29T18:34:12.848Z,48.91
2023-04-29T18:36:41.322Z,47.33
2023-04-29T18:39:11.837Z,48.55
2023-04-29T18:41:42.494Z,47.79
2023-04-29T18:44:14.394Z,47.19
2023-04-29T18:46:42.997Z,47.09
2023-04-29T18:49:18.047Z,47.76
2023-04-29T18:51:47.787Z,48.61
2023-04-29T18:54:21.124Z,49.63
2023-04-29T18:56:51.894Z,50.81
2023-04-29T18:59:21.902Z,52.14
2023-04-29T19:01:58.025Z,53.35
2023-04-29T19:04:28.299Z,52.75
2023-04-29T19:06:58.319Z,52.02
2023-04-29T19:09:32.776Z,52.87
2023-04-29T19:12:04.831Z,53.96
2023-04-29T19:14:34.360Z,54.30
2023-04-29T19:17:02.770Z,54.27
2023-04-29T19:19:31.512Z,53.97
2023-04-29T19:21:59.850Z,55.38
2023-04-29T19:24:32.867Z,55.00
2023-04-29T19:27:07.729Z,53.87
2023-04-29T19:29:37.387Z,53.33
2023-04-29T19:32:10.557Z,53.99
2023-04-29T19:34:45.373Z,54.11
2023-04-29T19:37:15.000Z,54.16
2023-04-29T19:39:46.138Z,55.07
2023-04-29T19:42:14.619Z,54.76
2023-04-29T19:44:42.990Z,54.60
2023-04-29T19:47:37.332Z,54.63
2023-04-29T19:50:13.545Z,54.59
2023-04-29T19:52:49.719Z,53.89
2023-04-29T19:55:21.501Z,53.64
2023-04-29T19:57:53.744Z,53.94
2023-04-29T20:00:50.180Z,54.16
2023-04-29T20:03:19.084Z,53.56
2023-04-29T20:06:10.944Z,54.91
2023-04-29T20:08:44.009Z,55.88
2023-04-29T20:11:19.180Z,55.88
2023-04-29T20:14:01.780Z,55.81
2023-04-29T20:16:35.583Z,55.37
2023-04-29T20:19:05.404Z,55.25
2023-04-29T20:24:46.324Z,55.86
2023-04-29T20:27:21.033Z,55.85
2023-04-29T20:29:51.995Z,55.64
2023-04-29T20:32:21.344Z,55.20
2023-04-29T20:34:50.666Z,55.28
2023-04-29T20:37:20.252Z,55.30
2023-04-29T20:39:51.564Z,55.61
2023-04-29T20:42:20.616Z,57.20
2023-04-29T20:44:48.891Z,56.12
2023-04-29T20:47:17.203Z,57.03
2023-04-29T20:49:45.394Z,58.13
2023-04-29T20:52:13.626Z,57.83
2023-04-29T20:54:57.351Z,56.78
2023-04-29T20:57:31.807Z,56.07
2023-04-29T21:00:00.195Z,56.25
2023-04-29T21:02:28.480Z,57.15
2023-04-29T21:04:56.817Z,59.72
2023-04-29T21:07:25.160Z,59.95
2023-04-29T21:09:54.274Z,58.97
2023-04-29T21:12:25.977Z,57.26
2023-04-29T21:14:55.573Z,55.98
2023-04-29T21:17:26.543Z,56.46
2023-04-29T21:19:57.606Z,56.37
2023-04-29T21:22:28.958Z,57.02
2023-04-29T21:24:57.254Z,57.64
2023-04-29T21:27:25.508Z,57.37
2023-04-29T21:29:53.955Z,55.48
2023-04-29T21:32:56.559Z,56.13
2023-04-29T21:35:27.436Z,55.96
2023-04-29T21:37:56.367Z,55.21
2023-04-29T21:40:26.651Z,55.14
2023-04-29T21:42:55.616Z,54.87
2023-04-29T21:45:26.898Z,54.56
2023-04-29T21:47:57.070Z,54.02
2023-04-29T21:50:30.443Z,53.73
2023-04-29T21:52:59.890Z,53.34
2023-04-29T21:55:27.985Z,54.02
2023-04-29T21:57:56.208Z,54.00
2023-04-29T22:00:33.243Z,54.52
2023-04-29T22:03:01.986Z,55.19
2023-04-29T22:05:31.762Z,56.18
2023-04-29T22:08:00.802Z,56.39
2023-04-29T22:10:28.962Z,56.11
2023-04-29T22:12:57.358Z,56.27
2023-04-29T22:15:28.902Z,55.48
2023-04-29T22:17:58.314Z,55.69
2023-04-29T22:20:26.498Z,56.49
2023-04-29T22:22:56.502Z,56.90
2023-04-29T22:25:24.788Z,56.15
2023-04-29T22:27:53.216Z,56.48
2023-04-29T22:30:21.849Z,56.37
2023-04-29T22:32:50.015Z,55.62
2023-04-29T22:35:18.306Z,54.76
2023-04-29T22:37:46.550Z,54.42
2023-04-29T22:40:16.395Z,54.04
2023-04-29T22:42:44.544Z,53.74
2023-04-29T22:45:13.353Z,53.99
2023-04-29T22:47:42.067Z,54.47
2023-04-29T22:50:10.969Z,54.36
2023-04-29T22:52:39.087Z,54.12
2023-04-29T22:55:07.325Z,53.96
2023-04-29T22:57:36.914Z,53.48
2023-04-29T23:00:06.371Z,53.19
2023-04-29T23:02:34.725Z,53.34
2023-04-29T23:05:03.707Z,53.50
2023-04-29T23:07:32.018Z,53.50
2023-04-29T23:10:00.167Z,53.55
2023-04-29T23:12:28.380Z,53.27
2023-04-29T23:14:57.909Z,53.69
2023-04-29T23:17:26.135Z,54.45
2023-04-29T23:19:54.647Z,55.23
2023-04-29T23:22:22.993Z,55.46
2023-04-29T23:24:51.214Z,55.92
2023-04-29T23:27:19.329Z,58.09
2023-04-29T23:29:47.549Z,58.09
2023-04-29T23:32:17.091Z,58.46
2023-04-29T23:34:45.245Z,58.63
2023-04-29T23:37:13.309Z,58.11
2023-04-29T23:39:41.424Z,58.28
2023-04-29T23:42:10.032Z,58.84
2023-04-29T23:44:39.372Z,60.76
2023-04-29T23:47:07.399Z,60.47
2023-04-29T23:49:36.924Z,62.67
2023-04-29T23:52:05.904Z,61.67
2023-04-29T23:54:34.032Z,63.13
2023-04-29T23:57:02.688Z,62.99
2023-04-29T23:59:30.834Z,62.61
